sensor_id;sensor_type;location;lat;lon;timestamp;pressure;altitude;pressure_sealevel;temperature;humidity
61757;BME280;57225;61.460;24.060;2023-04-29T00:02:01;99757.31;;;2.83;100.00
61757;BME280;57225;61.460;24.060;2023-04-29T00:04:45;99762.53;;;2.88;100.00
61757;BME280;57225;61.460;24.060;2023-04-29T00:07:30;99757.38;;;2.87;100.00
61757;BME280;57225;61.460;24.060;2023-04-29T00:10:15;99766.97;;;2.93;100.00
61757;BME280;57225;61.460;24.060;2023-04-29T00:13:00;99769.41;;;2.98;100.00
61757;BME280;57225;61.460;24.060;2023-04-29T00:15:45;99771.03;;;2.99;100.00
61757;BME280;57225;61.460;24.060;2023-04-29T00:18:30;99759.00;;;2.88;100.00
61757;BME280;57225;61.460;24.060;2023-04-29T00:21:16;99763.34;;;2.89;100.00
61757;BME280;57225;61.460;24.060;2023-04-29T00:24:01;99758.84;;;2.80;100.00
61757;BME280;57225;61.460;24.060;2023-04-29T00:26:47;99756.59;;;2.86;100.00
61757;BME280;57225;61.460;24.060;2023-04-29T00:29:32;99739.91;;;2.79;100.00
61757;BME280;57225;61.460;24.060;2023-04-29T00:32:17;99759.94;;;2.95;100.00
61757;BME280;57225;61.460;24.060;2023-04-29T00:35:01;99769.00;;;2.96;100.00
61757;BME280;57225;61.460;24.060;2023-04-29T00:37:46;99761.44;;;2.93;100.00
61757;BME280;57225;61.460;24.060;2023-04-29T00:40:30;99765.97;;;3.01;100.00
61757;BME280;57225;61.460;24.060;2023-04-29T00:43:16;99760.75;;;2.96;100.00
61757;BME280;57225;61.460;24.060;2023-04-29T00:46:01;99750.22;;;2.82;100.00
61757;BME280;57225;61.460;24.060;2023-04-29T00:48:46;99769.19;;;2.87;100.00
61757;BME280;57225;61.460;24.060;2023-04-29T00:51:30;99767.41;;;2.95;100.00
61757;BME280;57225;61.460;24.060;2023-04-29T00:54:16;99768.91;;;2.92;100.00
61757;BME280;57225;61.460;24.060;2023-04-29T00:57:01;99775.06;;;2.86;100.00
61757;BME280;57225;61.460;24.060;2023-04-29T00:59:48;99763.25;;;2.85;100.00
61757;BME280;57225;61.460;24.060;2023-04-29T01:02:33;99773.09;;;2.86;100.00
61757;BME280;57225;61.460;24.060;2023-04-29T01:05:18;99777.50;;;2.71;100.00
61757;BME280;57225;61.460;24.060;2023-04-29T01:11:07;99753.25;;;2.42;100.00
61757;BME280;57225;61.460;24.060;2023-04-29T01:13:58;99783.38;;;2.54;100.00
61757;BME280;57225;61.460;24.060;2023-04-29T01:16:51;99786.69;;;2.44;100.00
61757;BME280;57225;61.460;24.060;2023-04-29T01:19:56;99781.28;;;2.32;100.00
61757;BME280;57225;61.460;24.060;2023-04-29T01:22:42;99785.88;;;2.28;100.00
61757;BME280;57225;61.460;24.060;2023-04-29T01:25:27;99779.25;;;2.29;100.00
61757;BME280;57225;61.460;24.060;2023-04-29T01:31:35;99790.69;;;2.31;100.00
61757;BME280;57225;61.460;24.060;2023-04-29T01:35:03;99786.00;;;2.31;100.00
61757;BME280;57225;61.460;24.060;2023-04-29T01:38:15;99766.56;;;2.24;100.00
61757;BME280;57225;61.460;24.060;2023-04-29T01:41:13;99785.19;;;2.31;100.00
61757;BME280;57225;61.460;24.060;2023-04-29T01:44:00;99781.66;;;2.30;100.00
61757;BME280;57225;61.460;24.060;2023-04-29T01:46:58;99778.81;;;2.27;100.00
61757;BME280;57225;61.460;24.060;2023-04-29T01:50:06;99783.63;;;2.14;100.00
61757;BME280;57225;61.460;24.060;2023-04-29T01:52:50;99784.84;;;2.17;100.00
61757;BME280;57225;61.460;24.060;2023-04-29T01:55:35;99785.56;;;2.14;100.00
61757;BME280;57225;61.460;24.060;2023-04-29T01:58:21;99773.94;;;2.05;100.00
61757;BME280;57225;61.460;24.060;2023-04-29T02:01:05;99779.88;;;2.07;100.00
61757;BME280;57225;61.460;24.060;2023-04-29T02:03:50;99777.66;;;2.12;100.00
61757;BME280;57225;61.460;24.060;2023-04-29T02:06:34;99780.06;;;2.14;100.00
61757;BME280;57225;61.460;24.060;2023-04-29T02:09:18;99760.00;;;1.97;100.00
61757;BME280;57225;61.460;24.060;2023-04-29T02:12:03;99789.72;;;2.08;100.00
61757;BME280;57225;61.460;24.060;2023-04-29T02:14:51;99785.91;;;2.12;100.00
61757;BME280;57225;61.460;24.060;2023-04-29T02:17:36;99788.13;;;2.07;100.00
61757;BME280;57225;61.460;24.060;2023-04-29T02:20:20;99792.28;;;2.00;100.00
61757;BME280;57225;61.460;24.060;2023-04-29T02:23:05;99789.09;;;1.98;100.00
61757;BME280;57225;61.460;24.060;2023-04-29T02:25:49;99793.09;;;2.01;100.00
61757;BME280;57225;61.460;24.060;2023-04-29T02:28:34;99784.47;;;2.02;100.00
61757;BME280;57225;61.460;24.060;2023-04-29T02:31:18;99786.06;;;2.03;100.00
61757;BME280;57225;61.460;24.060;2023-04-29T02:34:02;99792.09;;;1.93;100.00
61757;BME280;57225;61.460;24.060;2023-04-29T02:36:48;99778.44;;;1.81;100.00
61757;BME280;57225;61.460;24.060;2023-04-29T02:39:32;99794.31;;;1.88;100.00
61757;BME280;57225;61.460;24.060;2023-04-29T02:42:17;99789.53;;;1.85;100.00
61757;BME280;57225;61.460;24.060;2023-04-29T02:45:01;99789.53;;;1.85;100.00
61757;BME280;57225;61.460;24.060;2023-04-29T02:47:45;99788.72;;;1.84;100.00
61757;BME280;57225;61.460;24.060;2023-04-29T02:50:30;99766.00;;;1.56;100.00
61757;BME280;57225;61.460;24.060;2023-04-29T02:53:15;99795.28;;;1.64;100.00
61757;BME280;57225;61.460;24.060;2023-04-29T02:56:00;99790.25;;;1.54;100.00
61757;BME280;57225;61.460;24.060;2023-04-29T02:58:46;99798.25;;;1.59;100.00
61757;BME280;57225;61.460;24.060;2023-04-29T03:01:30;99794.75;;;1.46;100.00
61757;BME280;57225;61.460;24.060;2023-04-29T03:04:14;99799.00;;;1.44;100.00
61757;BME280;57225;61.460;24.060;2023-04-29T03:06:59;99793.06;;;1.42;100.00
61757;BME280;57225;61.460;24.060;2023-04-29T03:09:43;99800.25;;;1.18;100.00
61757;BME280;57225;61.460;24.060;2023-04-29T03:12:28;99801.16;;;1.23;100.00
61757;BME280;57225;61.460;24.060;2023-04-29T03:15:12;99809.84;;;1.25;100.00
61757;BME280;57225;61.460;24.060;2023-04-29T03:17:57;99807.78;;;1.21;100.00
61757;BME280;57225;61.460;24.060;2023-04-29T03:20:45;99813.38;;;1.25;100.00
61757;BME280;57225;61.460;24.060;2023-04-29T03:23:30;99803.44;;;1.20;100.00
61757;BME280;57225;61.460;24.060;2023-04-29T03:26:15;99804.59;;;1.19;100.00
61757;BME280;57225;61.460;24.060;2023-04-29T03:29:00;99808.91;;;1.20;100.00
61757;BME280;57225;61.460;24.060;2023-04-29T03:31:45;99804.94;;;1.18;100.00
61757;BME280;57225;61.460;24.060;2023-04-29T03:34:30;99808.91;;;1.20;100.00
61757;BME280;57225;61.460;24.060;2023-04-29T03:37:16;99802.28;;;1.21;100.00
61757;BME280;57225;61.460;24.060;2023-04-29T03:40:00;99797.31;;;1.11;100.00
61757;BME280;57225;61.460;24.060;2023-04-29T03:42:45;99806.63;;;1.23;100.00
61757;BME280;57225;61.460;24.060;2023-04-29T03:45:29;99805.75;;;1.18;100.00
61757;BME280;57225;61.460;24.060;2023-04-29T03:48:15;99808.59;;;1.22;100.00
61757;BME280;57225;61.460;24.060;2023-04-29T03:50:59;99814.22;;;1.13;100.00
61757;BME280;57225;61.460;24.060;2023-04-29T03:53:45;99817.06;;;1.17;100.00
61757;BME280;57225;61.460;24.060;2023-04-29T03:56:29;99817.78;;;1.02;100.00
61757;BME280;57225;61.460;24.060;2023-04-29T03:59:15;99812.09;;;0.95;100.00
61757;BME280;57225;61.460;24.060;2023-04-29T04:01:59;99822.03;;;0.99;100.00
61757;BME280;57225;61.460;24.060;2023-04-29T04:04:45;99822.72;;;0.84;100.00
61757;BME280;57225;61.460;24.060;2023-04-29T04:07:30;99826.03;;;0.90;100.00
61757;BME280;57225;61.460;24.060;2023-04-29T04:10:15;99827.06;;;0.97;100.00
61757;BME280;57225;61.460;24.060;2023-04-29T04:13:00;99820.13;;;0.88;100.00
61757;BME280;57225;61.460;24.060;2023-04-29T04:15:49;99832.31;;;1.02;100.00
61757;BME280;57225;61.460;24.060;2023-04-29T04:18:35;99832.84;;;1.08;100.00
61757;BME280;57225;61.460;24.060;2023-04-29T04:21:20;99832.09;;;0.95;100.00
61757;BME280;57225;61.460;24.060;2023-04-29T04:24:04;99830.97;;;0.84;100.00
61757;BME280;57225;61.460;24.060;2023-04-29T04:26:50;99831.19;;;0.91;100.00
61757;BME280;57225;61.460;24.060;2023-04-29T04:29:34;99824.78;;;0.99;100.00
61757;BME280;57225;61.460;24.060;2023-04-29T04:32:19;99826.59;;;1.07;100.00
61757;BME280;57225;61.460;24.060;2023-04-29T04:35:05;99823.19;;;0.98;100.00
61757;BME280;57225;61.460;24.060;2023-04-29T04:37:50;99824.44;;;1.01;100.00
61757;BME280;57225;61.460;24.060;2023-04-29T04:40:36;99819.28;;;0.99;100.00
61757;BME280;57225;61.460;24.060;2023-04-29T04:43:20;99823.41;;;0.93;100.00
61757;BME280;57225;61.460;24.060;2023-04-29T04:46:15;99821.56;;;0.97;100.00
61757;BME280;57225;61.460;24.060;2023-04-29T04:48:59;99824.75;;;1.11;100.00
61757;BME280;57225;61.460;24.060;2023-04-29T04:51:45;99814.22;;;1.13;100.00
61757;BME280;57225;61.460;24.060;2023-04-29T04:54:30;99823.81;;;1.19;100.00
61757;BME280;57225;61.460;24.060;2023-04-29T04:57:15;99821.47;;;1.34;100.00
61757;BME280;57225;61.460;24.060;2023-04-29T04:59:59;99829.00;;;1.37;100.00
61757;BME280;57225;61.460;24.060;2023-04-29T05:02:45;99824.63;;;1.20;100.00
61757;BME280;57225;61.460;24.060;2023-04-29T05:05:29;99828.00;;;1.29;100.00
61757;BME280;57225;61.460;24.060;2023-04-29T05:08:16;99832.69;;;1.29;100.00
61757;BME280;57225;61.460;24.060;2023-04-29T05:11:01;99837.50;;;1.32;100.00
61757;BME280;57225;61.460;24.060;2023-04-29T05:13:47;99830.50;;;1.34;100.00
61757;BME280;57225;61.460;24.060;2023-04-29T05:16:32;99839.41;;;1.43;100.00
61757;BME280;57225;61.460;24.060;2023-04-29T05:19:17;99837.53;;;1.47;100.00
61757;BME280;57225;61.460;24.060;2023-04-29T05:22:01;99811.88;;;1.28;100.00
61757;BME280;57225;61.460;24.060;2023-04-29T05:24:46;99838.28;;;1.60;100.00
61757;BME280;57225;61.460;24.060;2023-04-29T05:27:35;99836.69;;;1.59;100.00
61757;BME280;57225;61.460;24.060;2023-04-29T05:30:21;99832.75;;;1.72;100.00
61757;BME280;57225;61.460;24.060;2023-04-29T05:33:06;99835.50;;;1.72;100.00
61757;BME280;57225;61.460;24.060;2023-04-29T05:35:51;99822.00;;;1.67;100.00
61757;BME280;57225;61.460;24.060;2023-04-29T05:38:36;99831.09;;;1.83;100.00
61757;BME280;57225;61.460;24.060;2023-04-29T05:41:21;99822.88;;;1.99;100.00
61757;BME280;57225;61.460;24.060;2023-04-29T05:44:07;99815.97;;;2.05;100.00
61757;BME280;57225;61.460;24.060;2023-04-29T05:46:57;99830.16;;;2.23;100.00
61757;BME280;57225;61.460;24.060;2023-04-29T05:49:42;99826.78;;;2.45;100.00
61757;BME280;57225;61.460;24.060;2023-04-29T05:52:26;99825.44;;;2.70;100.00
61757;BME280;57225;61.460;24.060;2023-04-29T05:55:11;99829.91;;;2.94;100.00
61757;BME280;57225;61.460;24.060;2023-04-29T05:57:55;99833.66;;;3.21;99.31
61757;BME280;57225;61.460;24.060;2023-04-29T06:00:40;99827.28;;;3.55;98.24
61757;BME280;57225;61.460;24.060;2023-04-29T06:03:24;99829.47;;;3.46;96.49
61757;BME280;57225;61.460;24.060;2023-04-29T06:06:09;99829.31;;;3.39;96.50
61757;BME280;57225;61.460;24.060;2023-04-29T06:08:54;99822.56;;;3.56;97.68
61757;BME280;57225;61.460;24.060;2023-04-29T06:11:38;99827.22;;;3.94;96.70
61757;BME280;57225;61.460;24.060;2023-04-29T06:14:23;99825.13;;;4.56;91.11
61757;BME280;57225;61.460;24.060;2023-04-29T06:17:07;99827.44;;;4.27;89.34
61757;BME280;57225;61.460;24.060;2023-04-29T06:19:51;99821.09;;;4.23;91.44
61757;BME280;57225;61.460;24.060;2023-04-29T06:22:36;99815.94;;;4.22;91.42
61757;BME280;57225;61.460;24.060;2023-04-29T06:25:21;99827.38;;;4.47;90.83
61757;BME280;57225;61.460;24.060;2023-04-29T06:28:06;99824.38;;;4.32;88.26
61757;BME280;57225;61.460;24.060;2023-04-29T06:30:51;99825.47;;;4.28;89.08
61757;BME280;57225;61.460;24.060;2023-04-29T06:33:36;99824.63;;;4.47;89.46
61757;BME280;57225;61.460;24.060;2023-04-29T06:36:20;99822.41;;;4.33;91.20
61757;BME280;57225;61.460;24.060;2023-04-29T06:39:05;99815.84;;;4.18;90.40
61757;BME280;57225;61.460;24.060;2023-04-29T06:41:49;99824.94;;;4.41;92.29
61757;BME280;57225;61.460;24.060;2023-04-29T06:44:35;99817.38;;;4.61;89.92
61757;BME280;57225;61.460;24.060;2023-04-29T06:47:19;99800.53;;;4.96;89.98
61757;BME280;57225;61.460;24.060;2023-04-29T06:50:04;99812.34;;;4.93;87.82
61757;BME280;57225;61.460;24.060;2023-04-29T06:52:49;99818.22;;;5.21;87.35
61757;BME280;57225;61.460;24.060;2023-04-29T06:55:34;99811.56;;;5.26;85.29
61757;BME280;57225;61.460;24.060;2023-04-29T06:58:19;99816.69;;;5.24;85.64
61757;BME280;57225;61.460;24.060;2023-04-29T07:01:03;99806.84;;;5.26;82.79
61757;BME280;57225;61.460;24.060;2023-04-29T07:03:50;99814.56;;;5.44;84.44
61757;BME280;57225;61.460;24.060;2023-04-29T07:06:34;99810.53;;;5.38;81.06
61757;BME280;57225;61.460;24.060;2023-04-29T07:09:20;99816.44;;;5.70;83.96
61757;BME280;57225;61.460;24.060;2023-04-29T07:12:06;99804.66;;;5.73;82.27
61757;BME280;57225;61.460;24.060;2023-04-29T07:14:51;99804.59;;;6.02;83.78
61757;BME280;57225;61.460;24.060;2023-04-29T07:17:36;99798.69;;;6.48;82.48
61757;BME280;57225;61.460;24.060;2023-04-29T07:20:21;99793.16;;;6.48;79.71
61757;BME280;57225;61.460;24.060;2023-04-29T07:23:05;99806.69;;;6.13;77.56
61757;BME280;57225;61.460;24.060;2023-04-29T07:25:50;99800.81;;;6.18;79.63
61757;BME280;57225;61.460;24.060;2023-04-29T07:28:35;99797.69;;;6.26;78.14
61757;BME280;57225;61.460;24.060;2023-04-29T07:31:19;99801.63;;;5.85;79.58
61757;BME280;57225;61.460;24.060;2023-04-29T07:34:04;99793.38;;;6.76;80.42
61757;BME280;57225;61.460;24.060;2023-04-29T07:36:49;99802.66;;;7.09;77.37
61757;BME280;57225;61.460;24.060;2023-04-29T07:39:33;99797.69;;;7.39;75.54
61757;BME280;57225;61.460;24.060;2023-04-29T07:42:18;99794.53;;;7.48;72.85
61757;BME280;57225;61.460;24.060;2023-04-29T07:45:04;99789.81;;;7.59;72.94
61757;BME280;57225;61.460;24.060;2023-04-29T07:47:48;99772.34;;;7.48;71.58
61757;BME280;57225;61.460;24.060;2023-04-29T07:50:36;99775.16;;;7.55;72.05
61757;BME280;57225;61.460;24.060;2023-04-29T07:53:20;99788.69;;;7.85;72.72
61757;BME280;57225;61.460;24.060;2023-04-29T07:56:07;99778.44;;;7.96;71.38
61757;BME280;57225;61.460;24.060;2023-04-29T07:58:52;99796.66;;;7.93;70.67
61757;BME280;57225;61.460;24.060;2023-04-29T08:01:37;99788.72;;;7.78;71.83
61757;BME280;57225;61.460;24.060;2023-04-29T08:04:21;99796.09;;;7.38;70.53
61757;BME280;57225;61.460;24.060;2023-04-29T08:07:06;99794.72;;;7.04;73.05
61757;BME280;57225;61.460;24.060;2023-04-29T08:09:50;99801.38;;;6.96;74.79
61757;BME280;57225;61.460;24.060;2023-04-29T08:12:35;99788.28;;;6.85;73.25
61757;BME280;57225;61.460;24.060;2023-04-29T08:15:22;99781.88;;;6.74;73.85
61757;BME280;57225;61.460;24.060;2023-04-29T08:18:06;99781.72;;;7.18;73.54
61757;BME280;57225;61.460;24.060;2023-04-29T08:20:51;99793.25;;;7.20;73.62
61757;BME280;57225;61.460;24.060;2023-04-29T08:23:39;99779.09;;;7.50;72.47
61757;BME280;57225;61.460;24.060;2023-04-29T08:26:23;99797.41;;;7.80;71.29
61757;BME280;57225;61.460;24.060;2023-04-29T08:29:08;99790.34;;;8.07;67.91
61757;BME280;57225;61.460;24.060;2023-04-29T08:31:52;99791.53;;;8.17;69.90
61757;BME280;57225;61.460;24.060;2023-04-29T08:34:37;99790.41;;;8.50;66.03
61757;BME280;57225;61.460;24.060;2023-04-29T08:37:21;99789.59;;;8.74;67.85
61757;BME280;57225;61.460;24.060;2023-04-29T08:40:07;99784.41;;;8.90;67.86
61757;BME280;57225;61.460;24.060;2023-04-29T08:42:52;99784.41;;;8.97;66.41
61757;BME280;57225;61.460;24.060;2023-04-29T08:45:38;99786.69;;;9.23;62.84
61757;BME280;57225;61.460;24.060;2023-04-29T08:48:32;99774.69;;;9.44;63.03
61757;BME280;57225;61.460;24.060;2023-04-29T08:51:29;99787.13;;;9.04;63.76
61757;BME280;57225;61.460;24.060;2023-04-29T08:54:15;99787.97;;;9.01;64.92
61757;BME280;57225;61.460;24.060;2023-04-29T08:57:00;99785.94;;;9.12;64.14
61757;BME280;57225;61.460;24.060;2023-04-29T08:59:46;99789.09;;;9.21;62.38
61757;BME280;57225;61.460;24.060;2023-04-29T09:02:32;99794.19;;;9.37;61.62
61757;BME280;57225;61.460;24.060;2023-04-29T09:05:16;99781.13;;;9.27;61.23
61757;BME280;57225;61.460;24.060;2023-04-29T09:08:01;99775.28;;;8.82;59.32
61757;BME280;57225;61.460;24.060;2023-04-29T09:10:47;99790.00;;;8.62;60.68
61757;BME280;57225;61.460;24.060;2023-04-29T09:13:32;99780.88;;;8.65;62.83
61757;BME280;57225;61.460;24.060;2023-04-29T09:16:16;99777.72;;;8.59;62.91
61757;BME280;57225;61.460;24.060;2023-04-29T09:19:01;99788.81;;;8.41;63.01
61757;BME280;57225;61.460;24.060;2023-04-29T09:21:53;99782.03;;;8.28;62.87
61757;BME280;57225;61.460;24.060;2023-04-29T09:24:39;99795.09;;;8.06;61.67
61757;BME280;57225;61.460;24.060;2023-04-29T09:27:27;99777.25;;;8.11;64.05
61757;BME280;57225;61.460;24.060;2023-04-29T09:30:15;99787.13;;;7.91;64.22
61757;BME280;57225;61.460;24.060;2023-04-29T09:33:08;99777.63;;;7.92;64.29
61757;BME280;57225;61.460;24.060;2023-04-29T09:35:52;99777.72;;;8.34;62.90
61757;BME280;57225;61.460;24.060;2023-04-29T09:38:52;99782.81;;;8.93;60.40
61757;BME280;57225;61.460;24.060;2023-04-29T09:44:33;99771.38;;;8.52;60.29
61757;BME280;57225;61.460;24.060;2023-04-29T09:47:28;99772.09;;;8.87;62.63
61757;BME280;57225;61.460;24.060;2023-04-29T09:50:14;99743.19;;;9.72;59.07
61757;BME280;57225;61.460;24.060;2023-04-29T09:52:59;99763.88;;;9.64;56.98
61757;BME280;57225;61.460;24.060;2023-04-29T09:58:37;99766.28;;;9.65;56.55
61757;BME280;57225;61.460;24.060;2023-04-29T10:01:22;99761.13;;;10.30;53.54
61757;BME280;57225;61.460;24.060;2023-04-29T10:04:09;99761.28;;;10.94;50.53
61757;BME280;57225;61.460;24.060;2023-04-29T10:06:55;99764.44;;;11.00;47.52
61757;BME280;57225;61.460;24.060;2023-04-29T10:09:39;99757.22;;;11.06;47.24
61757;BME280;57225;61.460;24.060;2023-04-29T10:12:24;99766.75;;;10.19;48.16
61757;BME280;57225;61.460;24.060;2023-04-29T10:15:27;99756.41;;;10.13;45.32
61757;BME280;57225;61.460;24.060;2023-04-29T10:18:36;99768.72;;;10.19;44.90
61757;BME280;57225;61.460;24.060;2023-04-29T10:21:27;99752.66;;;9.82;44.53
61757;BME280;57225;61.460;24.060;2023-04-29T10:24:17;99757.22;;;10.17;43.89
61757;BME280;57225;61.460;24.060;2023-04-29T10:27:06;99756.69;;;10.32;44.39
61757;BME280;57225;61.460;24.060;2023-04-29T10:29:52;99761.78;;;9.86;43.82
61757;BME280;57225;61.460;24.060;2023-04-29T10:32:39;99765.69;;;9.95;48.33
61757;BME280;57225;61.460;24.060;2023-04-29T10:35:25;99761.25;;;10.60;45.66
61757;BME280;57225;61.460;24.060;2023-04-29T10:38:19;99743.72;;;10.12;44.18
61757;BME280;57225;61.460;24.060;2023-04-29T10:41:13;99759.88;;;10.75;46.60
61757;BME280;57225;61.460;24.060;2023-04-29T10:44:00;99753.03;;;11.55;44.42
61757;BME280;57225;61.460;24.060;2023-04-29T10:46:44;99755.81;;;11.24;41.76
61757;BME280;57225;61.460;24.060;2023-04-29T10:49:33;99756.13;;;11.30;44.32
61757;BME280;57225;61.460;24.060;2023-04-29T10:52:17;99747.53;;;11.14;44.02
61757;BME280;57225;61.460;24.060;2023-04-29T10:55:02;99745.84;;;11.23;43.45
61757;BME280;57225;61.460;24.060;2023-04-29T10:57:54;99762.28;;;11.48;42.58
61757;BME280;57225;61.460;24.060;2023-04-29T11:00:41;99745.13;;;11.16;41.34
61757;BME280;57225;61.460;24.060;2023-04-29T11:04:04;99756.44;;;12.23;40.80
61757;BME280;57225;61.460;24.060;2023-04-29T11:06:53;99750.72;;;12.57;40.82
61757;BME280;57225;61.460;24.060;2023-04-29T11:09:39;99750.53;;;12.44;41.24
61757;BME280;57225;61.460;24.060;2023-04-29T11:12:24;99750.84;;;11.05;42.24
61757;BME280;57225;61.460;24.060;2023-04-29T11:15:08;99747.34;;;11.32;43.19
61757;BME280;57225;61.460;24.060;2023-04-29T11:17:58;99737.31;;;11.68;40.75
61757;BME280;57225;61.460;24.060;2023-04-29T11:23:50;99743.03;;;11.88;42.25
61757;BME280;57225;61.460;24.060;2023-04-29T11:26:35;99734.47;;;12.48;41.46
61757;BME280;57225;61.460;24.060;2023-04-29T11:29:20;99725.19;;;12.32;38.16
61757;BME280;57225;61.460;24.060;2023-04-29T11:32:06;99724.06;;;11.72;39.28
61757;BME280;57225;61.460;24.060;2023-04-29T11:34:52;99734.09;;;11.69;40.50
61757;BME280;57225;61.460;24.060;2023-04-29T11:37:36;99735.72;;;11.03;40.57
61757;BME280;57225;61.460;24.060;2023-04-29T11:40:21;99745.16;;;10.34;41.68
61757;BME280;57225;61.460;24.060;2023-04-29T11:43:05;99742.22;;;9.96;42.05
61757;BME280;57225;61.460;24.060;2023-04-29T11:45:51;99751.59;;;9.58;44.80
61757;BME280;57225;61.460;24.060;2023-04-29T11:48:48;99747.22;;;9.57;46.48
61757;BME280;57225;61.460;24.060;2023-04-29T11:51:45;99743.19;;;9.72;46.89
61757;BME280;57225;61.460;24.060;2023-04-29T11:54:29;99741.66;;;9.60;46.86
61757;BME280;57225;61.460;24.060;2023-04-29T11:57:14;99770.53;;;8.83;48.20
61757;BME280;57225;61.460;24.060;2023-04-29T11:59:59;99758.66;;;8.43;51.60
61757;BME280;57225;61.460;24.060;2023-04-29T12:02:45;99758.66;;;8.65;50.96
61757;BME280;57225;61.460;24.060;2023-04-29T12:05:31;99761.38;;;8.90;49.04
61757;BME280;57225;61.460;24.060;2023-04-29T12:08:21;99751.88;;;8.83;48.70
61757;BME280;57225;61.460;24.060;2023-04-29T12:11:06;99751.47;;;8.81;50.41
61757;BME280;57225;61.460;24.060;2023-04-29T12:13:50;99745.91;;;8.85;51.22
61757;BME280;57225;61.460;24.060;2023-04-29T12:16:35;99741.09;;;9.10;50.23
61757;BME280;57225;61.460;24.060;2023-04-29T12:19:20;99752.25;;;8.89;51.26
61757;BME280;57225;61.460;24.060;2023-04-29T12:22:05;99746.75;;;8.57;53.64
61757;BME280;57225;61.460;24.060;2023-04-29T12:24:51;99768.97;;;8.64;54.55
61757;BME280;57225;61.460;24.060;2023-04-29T12:27:39;99772.16;;;8.59;59.97
61757;BME280;57225;61.460;24.060;2023-04-29T12:30:27;99758.59;;;8.93;67.53
61757;BME280;57225;61.460;24.060;2023-04-29T12:33:20;99762.63;;;9.79;65.51
61757;BME280;57225;61.460;24.060;2023-04-29T12:36:15;99757.81;;;9.83;63.32
61757;BME280;57225;61.460;24.060;2023-04-29T12:39:00;99763.53;;;9.55;61.99
61757;BME280;57225;61.460;24.060;2023-04-29T12:41:45;99762.00;;;9.36;62.25
61757;BME280;57225;61.460;24.060;2023-04-29T12:44:35;99754.31;;;9.72;61.41
61757;BME280;57225;61.460;24.060;2023-04-29T12:47:31;99756.41;;;10.13;59.43
61757;BME280;57225;61.460;24.060;2023-04-29T12:50:17;99748.88;;;10.17;58.91
61757;BME280;57225;61.460;24.060;2023-04-29T12:53:06;99752.91;;;10.01;57.10
61757;BME280;57225;61.460;24.060;2023-04-29T12:55:55;99752.41;;;9.51;58.15
61757;BME280;57225;61.460;24.060;2023-04-29T12:58:40;99753.78;;;9.15;56.20
61757;BME280;57225;61.460;24.060;2023-04-29T13:01:24;99758.59;;;8.86;57.89
61757;BME280;57225;61.460;24.060;2023-04-29T13:04:09;99764.56;;;8.74;58.66
61757;BME280;57225;61.460;24.060;2023-04-29T13:06:55;99762.59;;;8.74;59.32
61757;BME280;57225;61.460;24.060;2023-04-29T13:09:43;99767.34;;;8.81;58.88
61757;BME280;57225;61.460;24.060;2023-04-29T13:12:28;99765.00;;;8.69;62.51
61757;BME280;57225;61.460;24.060;2023-04-29T13:15:12;99762.63;;;8.50;64.74
61757;BME280;57225;61.460;24.060;2023-04-29T13:17:57;99765.75;;;8.02;67.49
61757;BME280;57225;61.460;24.060;2023-04-29T13:20:42;99765.38;;;8.25;66.77
61757;BME280;57225;61.460;24.060;2023-04-29T13:23:26;99758.25;;;8.59;66.60
61757;BME280;57225;61.460;24.060;2023-04-29T13:26:10;99761.00;;;8.84;66.22
61757;BME280;57225;61.460;24.060;2023-04-29T13:28:55;99756.63;;;8.86;63.94
61757;BME280;57225;61.460;24.060;2023-04-29T13:31:40;99737.16;;;8.90;66.06
61757;BME280;57225;61.460;24.060;2023-04-29T13:34:26;99728.63;;;9.40;64.61
61757;BME280;57225;61.460;24.060;2023-04-29T13:37:11;99739.09;;;9.91;63.30
61757;BME280;57225;61.460;24.060;2023-04-29T13:39:55;99743.50;;;9.81;61.94
61757;BME280;57225;61.460;24.060;2023-04-29T13:42:40;99741.81;;;9.28;62.27
61757;BME280;57225;61.460;24.060;2023-04-29T13:45:25;99741.66;;;9.57;63.54
61757;BME280;57225;61.460;24.060;2023-04-29T13:48:09;99740.88;;;10.19;62.90
61757;BME280;57225;61.460;24.060;2023-04-29T13:50:54;99729.97;;;10.38;60.49
61757;BME280;57225;61.460;24.060;2023-04-29T13:53:39;99724.03;;;10.77;59.49
61757;BME280;57225;61.460;24.060;2023-04-29T13:56:23;99722.63;;;10.59;58.27
61757;BME280;57225;61.460;24.060;2023-04-29T13:59:09;99722.63;;;10.59;58.14
61757;BME280;57225;61.460;24.060;2023-04-29T14:01:53;99711.25;;;10.42;58.33
61757;BME280;57225;61.460;24.060;2023-04-29T14:04:38;99712.81;;;10.47;58.12
61757;BME280;57225;61.460;24.060;2023-04-29T14:07:22;99713.69;;;9.82;56.55
61757;BME280;57225;61.460;24.060;2023-04-29T14:10:07;99726.69;;;9.29;56.79
61757;BME280;57225;61.460;24.060;2023-04-29T14:12:53;99726.75;;;9.22;58.44
61757;BME280;57225;61.460;24.060;2023-04-29T14:15:38;99730.72;;;9.14;59.07
61757;BME280;57225;61.460;24.060;2023-04-29T14:18:22;99739.94;;;8.97;59.63
61757;BME280;57225;61.460;24.060;2023-04-29T14:21:07;99731.63;;;8.76;60.35
61757;BME280;57225;61.460;24.060;2023-04-29T14:23:51;99720.97;;;8.57;60.12
61757;BME280;57225;61.460;24.060;2023-04-29T14:26:36;99715.81;;;8.30;60.23
61757;BME280;57225;61.460;24.060;2023-04-29T14:29:20;99730.47;;;8.13;60.86
61757;BME280;57225;61.460;24.060;2023-04-29T14:32:05;99724.09;;;7.74;60.44
61757;BME280;57225;61.460;24.060;2023-04-29T14:34:50;99728.44;;;7.64;62.18
61757;BME280;57225;61.460;24.060;2023-04-29T14:37:35;99719.69;;;7.51;62.74
61757;BME280;57225;61.460;24.060;2023-04-29T14:40:19;99710.59;;;7.61;61.19
61757;BME280;57225;61.460;24.060;2023-04-29T14:43:04;99707.88;;;7.90;59.43
61757;BME280;57225;61.460;24.060;2023-04-29T14:45:48;99701.53;;;8.21;61.52
61757;BME280;57225;61.460;24.060;2023-04-29T14:48:55;99689.63;;;8.35;60.27
61757;BME280;57225;61.460;24.060;2023-04-29T14:51:39;99695.94;;;8.64;59.48